Pownal Center, Vermont
Current Conditions -  °F | °C
As of 11:52 AM on Sunday 23 Nov 2014 (Local Time) from KAQW Reporting Station
Scattered Clouds Scattered Clouds  
Wind Chill: 50°   Ceiling: Unl
Heat Index: 50°   Visibility: 10mi
Dew Point: 38°   Wind: 3mph
Humidity: 63%   Direction: 80°E
Pressure: 30.09"   Gusts: NA
Location:  42.7845°N, 73.2029°W
Report Text: KAQW 231652Z AUTO 08003KT 10SM SCT044 10/03 A3009 RMK AO2 SLP195 T01000033
Loading
Personal Weather Stations






























Interactive Weather Map New forecast layout! Learn more

10-Day Weather Forecast

Advertisements
Track Severe Weather on mobile